Terminal Aerodrome Forecast
Issued by NWS Charleston, WV

Current Version | Previous Version | Text Only | Print | Product List | Glossary Off
Versions: 1 2 3 4 5 6 7 8 9 10 11 12 13 14 15 16 17 18 19 20 21 22 23 24 25 26 27 28 29 30

768
FTUS41 KRLX 242109 AAD
TAFHTS
TAF AMD
KHTS 242109Z 2421/2518 20013G19KT P6SM SKC
     FM250800 20008KT 4SM -SHRA BR OVC025
     FM251200 28011G18KT P6SM OVC050
     FM251600 26012G26KT P6SM BKN040=

USA.gov is the U.S. government's official web portal to all federal, state and local government web resources and services.